Laytonville Rancheria, California
Current Conditions -  °F | °C
As of 12:56 PM on Tuesday 21 Oct 2014 (Local Time) from KUKI Reporting Station
Clear Clear  
Wind Chill: 65°   Ceiling: Unl
Heat Index: 65°   Visibility: 10mi
Dew Point: 45°   Wind: 0mph
Humidity: 48%   Direction: NA
Pressure: 30.09"   Gusts: NA
Location:  39.6519°N, 123.451°W
Report Text: KUKI 211956Z AUTO 00000KT 10SM CLR 18/07 A3009 RMK AO2 SLP183 T01830072
Loading
Personal Weather Stations






























Interactive Weather Map
Tropical Storm Tracking
New forecast layout! Learn more

10-Day Weather Forecast

Advertisements
Track Severe Weather on mobile